Terminal Aerodrome Forecast
Issued by NWS Upton, NY

Current Version | Previous Version | Text Only | Print | Product List | Glossary On
Versions: 1 2 3 4 5 6 7 8 9 10 11 12 13 14 15 16 17 18 19 20 21 22 23 24 25 26 27 28 29 30 31 32 33 34 35
822
FTUS41 KOKX 272335
TAFEWR
TAF
KEWR 272335Z 2800/2906 29009KT P6SM SCT050 SCT120
     FM281900 26011G18KT P6SM FEW070
     FM290000 23007KT P6SM FEW070=

USA.gov is the U.S. government's official web portal to all federal, state and local government web resources and services.